sensor_id;sensor_type;location;lat;lon;timestamp;P1;durP1;ratioP1;P2;durP2;ratioP2
55170;SDS011;41060;47.510;8.680;2023-02-01T00:00:17;4.72;;;2.08;;
55170;SDS011;41060;47.510;8.680;2023-02-01T00:02:44;2.85;;;1.52;;
55170;SDS011;41060;47.510;8.680;2023-02-01T00:05:11;2.95;;;1.63;;
55170;SDS011;41060;47.510;8.680;2023-02-01T00:07:37;2.72;;;1.88;;
55170;SDS011;41060;47.510;8.680;2023-02-01T00:10:05;7.57;;;2.67;;
55170;SDS011;41060;47.510;8.680;2023-02-01T00:12:33;4.00;;;2.63;;
55170;SDS011;41060;47.510;8.680;2023-02-01T00:15:00;5.45;;;2.28;;
55170;SDS011;41060;47.510;8.680;2023-02-01T00:17:28;4.00;;;2.38;;
55170;SDS011;41060;47.510;8.680;2023-02-01T00:19:55;3.03;;;2.13;;
55170;SDS011;41060;47.510;8.680;2023-02-01T00:22:21;6.15;;;2.25;;
55170;SDS011;41060;47.510;8.680;2023-02-01T00:24:48;3.50;;;2.05;;
55170;SDS011;41060;47.510;8.680;2023-02-01T00:27:15;3.67;;;2.67;;
55170;SDS011;41060;47.510;8.680;2023-02-01T00:29:45;3.97;;;2.17;;
55170;SDS011;41060;47.510;8.680;2023-02-01T00:32:12;6.55;;;2.38;;
55170;SDS011;41060;47.510;8.680;2023-02-01T00:34:40;2.95;;;1.77;;
55170;SDS011;41060;47.510;8.680;2023-02-01T00:37:07;2.30;;;2.10;;
55170;SDS011;41060;47.510;8.680;2023-02-01T00:39:34;4.50;;;2.00;;
55170;SDS011;41060;47.510;8.680;2023-02-01T00:42:00;5.97;;;2.13;;
55170;SDS011;41060;47.510;8.680;2023-02-01T00:44:27;2.58;;;1.92;;
55170;SDS011;41060;47.510;8.680;2023-02-01T00:46:58;4.93;;;1.73;;
55170;SDS011;41060;47.510;8.680;2023-02-01T00:49:26;3.22;;;1.70;;
55170;SDS011;41060;47.510;8.680;2023-02-01T00:51:54;3.38;;;1.50;;
55170;SDS011;41060;47.510;8.680;2023-02-01T00:54:21;4.55;;;2.17;;
55170;SDS011;41060;47.510;8.680;2023-02-01T00:56:48;3.55;;;2.13;;
55170;SDS011;41060;47.510;8.680;2023-02-01T00:59:14;3.45;;;1.85;;
55170;SDS011;41060;47.510;8.680;2023-02-01T01:01:41;6.18;;;2.00;;
55170;SDS011;41060;47.510;8.680;2023-02-01T01:04:08;4.20;;;1.67;;
55170;SDS011;41060;47.510;8.680;2023-02-01T01:06:35;4.75;;;1.75;;
55170;SDS011;41060;47.510;8.680;2023-02-01T01:09:04;2.50;;;1.55;;
55170;SDS011;41060;47.510;8.680;2023-02-01T01:11:34;4.60;;;2.25;;
55170;SDS011;41060;47.510;8.680;2023-02-01T01:14:02;5.22;;;1.67;;
55170;SDS011;41060;47.510;8.680;2023-02-01T01:16:30;2.42;;;1.48;;
55170;SDS011;41060;47.510;8.680;2023-02-01T01:18:58;3.58;;;2.67;;
55170;SDS011;41060;47.510;8.680;2023-02-01T01:21:26;1.23;;;1.05;;
55170;SDS011;41060;47.510;8.680;2023-02-01T01:23:53;2.78;;;1.38;;
55170;SDS011;41060;47.510;8.680;2023-02-01T01:26:21;2.95;;;1.67;;
55170;SDS011;41060;47.510;8.680;2023-02-01T01:28:50;3.72;;;2.38;;
55170;SDS011;41060;47.510;8.680;2023-02-01T01:31:18;2.53;;;1.65;;
55170;SDS011;41060;47.510;8.680;2023-02-01T01:33:47;2.53;;;2.08;;
55170;SDS011;41060;47.510;8.680;2023-02-01T01:36:15;4.25;;;2.65;;
55170;SDS011;41060;47.510;8.680;2023-02-01T01:38:42;6.82;;;2.78;;
55170;SDS011;41060;47.510;8.680;2023-02-01T01:41:12;6.30;;;2.55;;
55170;SDS011;41060;47.510;8.680;2023-02-01T01:43:46;3.25;;;2.00;;
55170;SDS011;41060;47.510;8.680;2023-02-01T01:46:15;2.72;;;1.70;;
55170;SDS011;41060;47.510;8.680;2023-02-01T01:48:43;3.33;;;1.42;;
55170;SDS011;41060;47.510;8.680;2023-02-01T01:51:10;1.85;;;1.40;;
55170;SDS011;41060;47.510;8.680;2023-02-01T01:53:41;6.40;;;1.80;;
55170;SDS011;41060;47.510;8.680;2023-02-01T01:56:11;3.53;;;1.63;;
55170;SDS011;41060;47.510;8.680;2023-02-01T01:58:38;4.30;;;2.60;;
55170;SDS011;41060;47.510;8.680;2023-02-01T02:01:07;5.72;;;3.05;;
55170;SDS011;41060;47.510;8.680;2023-02-01T02:03:35;6.38;;;2.55;;
55170;SDS011;41060;47.510;8.680;2023-02-01T02:06:07;3.78;;;2.25;;
55170;SDS011;41060;47.510;8.680;2023-02-01T02:08:43;2.08;;;1.52;;
55170;SDS011;41060;47.510;8.680;2023-02-01T02:11:10;4.25;;;2.38;;
55170;SDS011;41060;47.510;8.680;2023-02-01T02:13:41;7.82;;;2.47;;
55170;SDS011;41060;47.510;8.680;2023-02-01T02:16:20;3.60;;;1.83;;
55170;SDS011;41060;47.510;8.680;2023-02-01T02:19:01;5.35;;;2.67;;
55170;SDS011;41060;47.510;8.680;2023-02-01T02:21:50;8.80;;;2.08;;
55170;SDS011;41060;47.510;8.680;2023-02-01T02:24:31;2.10;;;1.23;;
55170;SDS011;41060;47.510;8.680;2023-02-01T02:27:11;4.70;;;2.70;;
55170;SDS011;41060;47.510;8.680;2023-02-01T02:29:54;3.30;;;2.47;;
55170;SDS011;41060;47.510;8.680;2023-02-01T02:35:45;3.83;;;2.10;;
55170;SDS011;41060;47.510;8.680;2023-02-01T02:38:21;4.63;;;2.33;;
55170;SDS011;41060;47.510;8.680;2023-02-01T02:40:54;2.58;;;2.28;;
55170;SDS011;41060;47.510;8.680;2023-02-01T02:43:30;3.38;;;2.20;;
55170;SDS011;41060;47.510;8.680;2023-02-01T02:46:20;5.57;;;2.58;;
55170;SDS011;41060;47.510;8.680;2023-02-01T02:49:09;3.78;;;1.70;;
55170;SDS011;41060;47.510;8.680;2023-02-01T02:51:42;3.55;;;2.33;;
55170;SDS011;41060;47.510;8.680;2023-02-01T02:54:32;4.22;;;1.83;;
55170;SDS011;41060;47.510;8.680;2023-02-01T02:57:18;2.95;;;2.05;;
55170;SDS011;41060;47.510;8.680;2023-02-01T03:00:07;4.53;;;1.58;;
55170;SDS011;41060;47.510;8.680;2023-02-01T03:02:53;1.90;;;1.15;;
55170;SDS011;41060;47.510;8.680;2023-02-01T03:05:40;2.42;;;1.67;;
55170;SDS011;41060;47.510;8.680;2023-02-01T03:08:11;7.00;;;2.50;;
55170;SDS011;41060;47.510;8.680;2023-02-01T03:10:42;3.83;;;2.95;;
55170;SDS011;41060;47.510;8.680;2023-02-01T03:15:47;2.28;;;1.42;;
55170;SDS011;41060;47.510;8.680;2023-02-01T03:18:22;2.90;;;1.50;;
55170;SDS011;41060;47.510;8.680;2023-02-01T03:20:55;3.25;;;1.38;;
55170;SDS011;41060;47.510;8.680;2023-02-01T03:23:26;5.10;;;2.53;;
55170;SDS011;41060;47.510;8.680;2023-02-01T03:25:57;2.72;;;2.33;;
55170;SDS011;41060;47.510;8.680;2023-02-01T03:28:26;2.65;;;1.67;;
55170;SDS011;41060;47.510;8.680;2023-02-01T03:30:57;4.32;;;1.85;;
55170;SDS011;41060;47.510;8.680;2023-02-01T03:33:25;6.28;;;2.90;;
55170;SDS011;41060;47.510;8.680;2023-02-01T03:35:57;8.10;;;3.00;;
55170;SDS011;41060;47.510;8.680;2023-02-01T03:38:31;3.22;;;2.55;;
55170;SDS011;41060;47.510;8.680;2023-02-01T03:41:03;3.47;;;2.25;;
55170;SDS011;41060;47.510;8.680;2023-02-01T03:43:39;4.80;;;2.80;;
55170;SDS011;41060;47.510;8.680;2023-02-01T03:46:12;3.58;;;1.63;;
55170;SDS011;41060;47.510;8.680;2023-02-01T03:48:46;3.25;;;1.45;;
55170;SDS011;41060;47.510;8.680;2023-02-01T03:51:14;2.30;;;1.60;;
55170;SDS011;41060;47.510;8.680;2023-02-01T03:53:43;4.68;;;2.42;;
55170;SDS011;41060;47.510;8.680;2023-02-01T03:56:12;5.20;;;2.20;;
55170;SDS011;41060;47.510;8.680;2023-02-01T03:58:39;2.92;;;2.00;;
55170;SDS011;41060;47.510;8.680;2023-02-01T04:01:06;3.53;;;2.15;;
55170;SDS011;41060;47.510;8.680;2023-02-01T04:03:33;3.65;;;2.42;;
55170;SDS011;41060;47.510;8.680;2023-02-01T04:06:00;5.45;;;2.63;;
55170;SDS011;41060;47.510;8.680;2023-02-01T04:08:26;5.22;;;2.55;;
55170;SDS011;41060;47.510;8.680;2023-02-01T04:10:55;3.03;;;2.45;;
55170;SDS011;41060;47.510;8.680;2023-02-01T04:13:21;7.07;;;2.53;;
55170;SDS011;41060;47.510;8.680;2023-02-01T04:15:48;6.05;;;1.77;;
55170;SDS011;41060;47.510;8.680;2023-02-01T04:18:16;5.75;;;2.90;;
55170;SDS011;41060;47.510;8.680;2023-02-01T04:20:43;2.08;;;1.55;;
55170;SDS011;41060;47.510;8.680;2023-02-01T04:23:10;4.65;;;2.47;;
55170;SDS011;41060;47.510;8.680;2023-02-01T04:25:37;4.75;;;2.08;;
55170;SDS011;41060;47.510;8.680;2023-02-01T04:28:05;2.67;;;1.63;;
55170;SDS011;41060;47.510;8.680;2023-02-01T04:30:32;4.50;;;2.47;;
55170;SDS011;41060;47.510;8.680;2023-02-01T04:33:00;2.60;;;2.25;;
55170;SDS011;41060;47.510;8.680;2023-02-01T04:35:31;3.72;;;1.85;;
55170;SDS011;41060;47.510;8.680;2023-02-01T04:37:58;2.70;;;1.95;;
55170;SDS011;41060;47.510;8.680;2023-02-01T04:40:26;5.80;;;2.47;;
55170;SDS011;41060;47.510;8.680;2023-02-01T04:42:52;3.08;;;1.70;;
55170;SDS011;41060;47.510;8.680;2023-02-01T04:45:20;3.15;;;2.22;;
55170;SDS011;41060;47.510;8.680;2023-02-01T04:47:47;2.90;;;1.85;;
55170;SDS011;41060;47.510;8.680;2023-02-01T04:50:14;4.47;;;1.25;;
55170;SDS011;41060;47.510;8.680;2023-02-01T04:52:41;3.92;;;2.30;;
55170;SDS011;41060;47.510;8.680;2023-02-01T04:55:10;6.20;;;2.80;;
55170;SDS011;41060;47.510;8.680;2023-02-01T04:57:38;3.63;;;1.88;;
55170;SDS011;41060;47.510;8.680;2023-02-01T05:00:05;3.13;;;1.90;;
55170;SDS011;41060;47.510;8.680;2023-02-01T05:02:35;4.07;;;1.85;;
55170;SDS011;41060;47.510;8.680;2023-02-01T05:05:04;4.28;;;2.08;;
55170;SDS011;41060;47.510;8.680;2023-02-01T05:07:31;4.38;;;1.77;;
55170;SDS011;41060;47.510;8.680;2023-02-01T05:09:58;3.72;;;1.52;;
55170;SDS011;41060;47.510;8.680;2023-02-01T05:12:25;6.68;;;2.00;;
55170;SDS011;41060;47.510;8.680;2023-02-01T05:15:09;2.50;;;1.38;;
55170;SDS011;41060;47.510;8.680;2023-02-01T05:17:37;3.10;;;1.25;;
55170;SDS011;41060;47.510;8.680;2023-02-01T05:20:05;5.18;;;1.50;;
55170;SDS011;41060;47.510;8.680;2023-02-01T05:22:33;3.72;;;1.63;;
55170;SDS011;41060;47.510;8.680;2023-02-01T05:24:59;3.60;;;2.65;;
55170;SDS011;41060;47.510;8.680;2023-02-01T05:27:28;3.70;;;2.63;;
55170;SDS011;41060;47.510;8.680;2023-02-01T05:29:56;1.98;;;1.88;;
55170;SDS011;41060;47.510;8.680;2023-02-01T05:32:22;2.40;;;1.48;;
55170;SDS011;41060;47.510;8.680;2023-02-01T05:34:50;3.47;;;2.10;;
55170;SDS011;41060;47.510;8.680;2023-02-01T05:37:17;4.05;;;1.80;;
55170;SDS011;41060;47.510;8.680;2023-02-01T05:39:44;3.75;;;2.22;;
55170;SDS011;41060;47.510;8.680;2023-02-01T05:42:10;4.03;;;1.38;;
55170;SDS011;41060;47.510;8.680;2023-02-01T05:44:38;2.08;;;1.63;;
55170;SDS011;41060;47.510;8.680;2023-02-01T05:47:04;1.88;;;1.58;;
55170;SDS011;41060;47.510;8.680;2023-02-01T05:49:31;12.15;;;2.28;;
55170;SDS011;41060;47.510;8.680;2023-02-01T05:51:59;3.17;;;2.03;;
55170;SDS011;41060;47.510;8.680;2023-02-01T05:54:26;5.57;;;2.13;;
55170;SDS011;41060;47.510;8.680;2023-02-01T05:56:52;1.48;;;1.23;;
55170;SDS011;41060;47.510;8.680;2023-02-01T05:59:19;3.80;;;1.48;;
55170;SDS011;41060;47.510;8.680;2023-02-01T06:01:46;5.45;;;2.28;;
55170;SDS011;41060;47.510;8.680;2023-02-01T06:04:15;1.90;;;1.70;;
55170;SDS011;41060;47.510;8.680;2023-02-01T06:06:42;2.63;;;1.95;;
55170;SDS011;41060;47.510;8.680;2023-02-01T06:09:10;4.03;;;2.22;;
55170;SDS011;41060;47.510;8.680;2023-02-01T06:11:37;4.60;;;2.10;;
55170;SDS011;41060;47.510;8.680;2023-02-01T06:14:04;2.20;;;1.25;;
55170;SDS011;41060;47.510;8.680;2023-02-01T06:16:32;6.07;;;2.40;;
55170;SDS011;41060;47.510;8.680;2023-02-01T06:18:59;3.50;;;2.42;;
55170;SDS011;41060;47.510;8.680;2023-02-01T06:21:26;2.08;;;1.73;;
55170;SDS011;41060;47.510;8.680;2023-02-01T06:23:53;3.28;;;1.85;;
55170;SDS011;41060;47.510;8.680;2023-02-01T06:26:21;3.65;;;1.70;;
55170;SDS011;41060;47.510;8.680;2023-02-01T06:28:49;4.28;;;2.22;;
55170;SDS011;41060;47.510;8.680;2023-02-01T06:31:16;3.88;;;2.67;;
55170;SDS011;41060;47.510;8.680;2023-02-01T06:33:42;3.00;;;1.60;;
55170;SDS011;41060;47.510;8.680;2023-02-01T06:36:11;4.47;;;2.08;;
55170;SDS011;41060;47.510;8.680;2023-02-01T06:38:38;2.10;;;1.38;;
55170;SDS011;41060;47.510;8.680;2023-02-01T06:41:05;5.05;;;1.92;;
55170;SDS011;41060;47.510;8.680;2023-02-01T06:43:36;2.88;;;1.83;;
55170;SDS011;41060;47.510;8.680;2023-02-01T06:46:03;2.88;;;2.28;;
55170;SDS011;41060;47.510;8.680;2023-02-01T06:48:32;1.35;;;1.23;;
55170;SDS011;41060;47.510;8.680;2023-02-01T06:50:59;3.15;;;1.92;;
55170;SDS011;41060;47.510;8.680;2023-02-01T06:53:26;4.00;;;2.42;;
55170;SDS011;41060;47.510;8.680;2023-02-01T06:55:53;3.13;;;1.92;;
55170;SDS011;41060;47.510;8.680;2023-02-01T06:58:20;3.60;;;1.35;;
55170;SDS011;41060;47.510;8.680;2023-02-01T07:00:48;3.03;;;2.25;;
55170;SDS011;41060;47.510;8.680;2023-02-01T07:03:16;4.35;;;2.00;;
55170;SDS011;41060;47.510;8.680;2023-02-01T07:05:42;2.65;;;1.80;;
55170;SDS011;41060;47.510;8.680;2023-02-01T07:08:09;6.07;;;3.25;;
55170;SDS011;41060;47.510;8.680;2023-02-01T07:10:36;4.50;;;2.65;;
55170;SDS011;41060;47.510;8.680;2023-02-01T07:13:03;3.95;;;1.70;;
55170;SDS011;41060;47.510;8.680;2023-02-01T07:15:30;2.70;;;1.60;;
55170;SDS011;41060;47.510;8.680;2023-02-01T07:17:58;7.97;;;3.05;;
55170;SDS011;41060;47.510;8.680;2023-02-01T07:20:25;4.97;;;2.47;;
55170;SDS011;41060;47.510;8.680;2023-02-01T07:22:54;3.45;;;1.98;;
55170;SDS011;41060;47.510;8.680;2023-02-01T07:25:22;2.90;;;1.58;;
55170;SDS011;41060;47.510;8.680;2023-02-01T07:27:48;3.17;;;1.60;;
55170;SDS011;41060;47.510;8.680;2023-02-01T07:30:15;4.03;;;2.05;;
55170;SDS011;41060;47.510;8.680;2023-02-01T07:32:42;5.18;;;2.10;;
55170;SDS011;41060;47.510;8.680;2023-02-01T07:35:13;4.82;;;2.55;;
55170;SDS011;41060;47.510;8.680;2023-02-01T07:37:40;3.42;;;2.50;;
55170;SDS011;41060;47.510;8.680;2023-02-01T07:40:08;6.53;;;3.20;;
55170;SDS011;41060;47.510;8.680;2023-02-01T07:42:35;3.80;;;2.22;;
55170;SDS011;41060;47.510;8.680;2023-02-01T07:45:02;2.33;;;1.98;;
55170;SDS011;41060;47.510;8.680;2023-02-01T07:47:29;4.97;;;2.72;;
55170;SDS011;41060;47.510;8.680;2023-02-01T07:49:56;3.33;;;2.45;;
55170;SDS011;41060;47.510;8.680;2023-02-01T07:52:24;5.38;;;2.53;;
55170;SDS011;41060;47.510;8.680;2023-02-01T07:54:54;6.43;;;2.88;;
55170;SDS011;41060;47.510;8.680;2023-02-01T07:57:20;4.93;;;3.65;;
55170;SDS011;41060;47.510;8.680;2023-02-01T07:59:47;4.65;;;3.20;;
55170;SDS011;41060;47.510;8.680;2023-02-01T08:02:31;6.03;;;2.50;;
55170;SDS011;41060;47.510;8.680;2023-02-01T08:05:00;4.05;;;3.08;;
55170;SDS011;41060;47.510;8.680;2023-02-01T08:07:28;5.75;;;2.90;;
55170;SDS011;41060;47.510;8.680;2023-02-01T08:09:55;4.35;;;2.78;;
55170;SDS011;41060;47.510;8.680;2023-02-01T08:12:21;4.68;;;2.95;;
55170;SDS011;41060;47.510;8.680;2023-02-01T08:14:53;9.38;;;4.43;;
55170;SDS011;41060;47.510;8.680;2023-02-01T08:17:22;4.10;;;2.83;;
55170;SDS011;41060;47.510;8.680;2023-02-01T08:19:48;3.58;;;2.45;;
55170;SDS011;41060;47.510;8.680;2023-02-01T08:22:15;3.90;;;2.42;;
55170;SDS011;41060;47.510;8.680;2023-02-01T08:24:43;5.50;;;3.75;;
55170;SDS011;41060;47.510;8.680;2023-02-01T08:27:10;8.23;;;4.93;;
55170;SDS011;41060;47.510;8.680;2023-02-01T08:29:37;3.30;;;2.35;;
55170;SDS011;41060;47.510;8.680;2023-02-01T08:32:05;6.18;;;4.43;;
55170;SDS011;41060;47.510;8.680;2023-02-01T08:34:31;5.53;;;3.45;;
55170;SDS011;41060;47.510;8.680;2023-02-01T08:36:58;5.72;;;4.22;;
55170;SDS011;41060;47.510;8.680;2023-02-01T08:39:25;6.93;;;2.88;;
55170;SDS011;41060;47.510;8.680;2023-02-01T08:41:54;10.10;;;4.13;;
55170;SDS011;41060;47.510;8.680;2023-02-01T08:44:35;6.13;;;2.90;;
55170;SDS011;41060;47.510;8.680;2023-02-01T08:47:02;3.83;;;3.20;;
55170;SDS011;41060;47.510;8.680;2023-02-01T08:49:29;3.75;;;2.58;;
55170;SDS011;41060;47.510;8.680;2023-02-01T08:51:56;5.53;;;2.90;;
55170;SDS011;41060;47.510;8.680;2023-02-01T08:54:23;5.57;;;2.47;;
55170;SDS011;41060;47.510;8.680;2023-02-01T08:56:49;5.53;;;2.38;;
55170;SDS011;41060;47.510;8.680;2023-02-01T08:59:18;5.82;;;3.42;;
55170;SDS011;41060;47.510;8.680;2023-02-01T09:01:44;2.67;;;2.17;;
55170;SDS011;41060;47.510;8.680;2023-02-01T09:04:11;4.93;;;2.25;;
55170;SDS011;41060;47.510;8.680;2023-02-01T09:06:42;8.25;;;3.13;;
55170;SDS011;41060;47.510;8.680;2023-02-01T09:09:08;3.85;;;1.73;;
55170;SDS011;41060;47.510;8.680;2023-02-01T09:11:35;5.57;;;2.63;;
55170;SDS011;41060;47.510;8.680;2023-02-01T09:14:02;7.55;;;2.85;;
55170;SDS011;41060;47.510;8.680;2023-02-01T09:16:30;5.45;;;2.17;;
55170;SDS011;41060;47.510;8.680;2023-02-01T09:18:56;4.32;;;1.92;;
55170;SDS011;41060;47.510;8.680;2023-02-01T09:21:23;6.88;;;3.97;;
55170;SDS011;41060;47.510;8.680;2023-02-01T09:23:50;4.43;;;2.28;;
55170;SDS011;41060;47.510;8.680;2023-02-01T09:26:22;5.95;;;2.80;;
55170;SDS011;41060;47.510;8.680;2023-02-01T09:28:49;3.88;;;2.42;;
55170;SDS011;41060;47.510;8.680;2023-02-01T09:31:16;3.47;;;1.52;;
55170;SDS011;41060;47.510;8.680;2023-02-01T09:33:44;6.65;;;2.22;;
55170;SDS011;41060;47.510;8.680;2023-02-01T09:36:11;4.95;;;2.70;;
55170;SDS011;41060;47.510;8.680;2023-02-01T09:38:38;3.97;;;2.15;;
55170;SDS011;41060;47.510;8.680;2023-02-01T09:41:07;7.43;;;2.08;;
55170;SDS011;41060;47.510;8.680;2023-02-01T09:43:50;3.63;;;1.75;;
55170;SDS011;41060;47.510;8.680;2023-02-01T09:46:24;4.07;;;2.03;;
55170;SDS011;41060;47.510;8.680;2023-02-01T09:48:56;2.05;;;1.60;;
55170;SDS011;41060;47.510;8.680;2023-02-01T09:51:25;3.13;;;1.83;;
55170;SDS011;41060;47.510;8.680;2023-02-01T09:53:58;7.47;;;2.53;;
55170;SDS011;41060;47.510;8.680;2023-02-01T09:56:29;3.57;;;1.73;;
55170;SDS011;41060;47.510;8.680;2023-02-01T09:59:03;2.83;;;1.92;;
55170;SDS011;41060;47.510;8.680;2023-02-01T10:01:34;4.80;;;2.25;;
55170;SDS011;41060;47.510;8.680;2023-02-01T10:04:06;3.33;;;2.03;;
55170;SDS011;41060;47.510;8.680;2023-02-01T10:06:48;2.83;;;1.88;;
55170;SDS011;41060;47.510;8.680;2023-02-01T10:09:35;1.63;;;1.45;;
55170;SDS011;41060;47.510;8.680;2023-02-01T10:15:21;2.33;;;2.00;;
55170;SDS011;41060;47.510;8.680;2023-02-01T10:17:56;4.53;;;2.70;;
55170;SDS011;41060;47.510;8.680;2023-02-01T10:20:42;1.85;;;1.17;;
55170;SDS011;41060;47.510;8.680;2023-02-01T10:23:21;1.67;;;1.25;;
55170;SDS011;41060;47.510;8.680;2023-02-01T10:26:04;3.10;;;1.50;;
55170;SDS011;41060;47.510;8.680;2023-02-01T10:28:39;1.48;;;1.10;;
55170;SDS011;41060;47.510;8.680;2023-02-01T10:31:13;3.45;;;1.90;;
55170;SDS011;41060;47.510;8.680;2023-02-01T10:33:41;2.92;;;1.92;;
55170;SDS011;41060;47.510;8.680;2023-02-01T10:36:15;4.82;;;1.70;;
55170;SDS011;41060;47.510;8.680;2023-02-01T10:38:45;1.70;;;1.57;;
55170;SDS011;41060;47.510;8.680;2023-02-01T10:41:14;1.88;;;1.25;;
55170;SDS011;41060;47.510;8.680;2023-02-01T10:43:43;1.50;;;0.93;;
55170;SDS011;41060;47.510;8.680;2023-02-01T10:46:12;2.72;;;1.15;;
55170;SDS011;41060;47.510;8.680;2023-02-01T10:48:39;2.78;;;2.15;;
55170;SDS011;41060;47.510;8.680;2023-02-01T10:51:07;1.00;;;1.00;;
55170;SDS011;41060;47.510;8.680;2023-02-01T10:53:46;2.20;;;1.17;;
55170;SDS011;41060;47.510;8.680;2023-02-01T10:56:21;2.17;;;1.33;;
55170;SDS011;41060;47.510;8.680;2023-02-01T10:58:50;3.38;;;2.08;;
55170;SDS011;41060;47.510;8.680;2023-02-01T11:01:19;3.50;;;1.77;;
55170;SDS011;41060;47.510;8.680;2023-02-01T11:03:51;2.70;;;2.30;;
55170;SDS011;41060;47.510;8.680;2023-02-01T11:06:26;0.98;;;0.70;;
55170;SDS011;41060;47.510;8.680;2023-02-01T11:08:56;5.05;;;1.65;;
55170;SDS011;41060;47.510;8.680;2023-02-01T11:11:24;7.47;;;1.60;;
55170;SDS011;41060;47.510;8.680;2023-02-01T11:13:56;1.90;;;1.13;;
55170;SDS011;41060;47.510;8.680;2023-02-01T11:16:28;2.45;;;1.67;;
55170;SDS011;41060;47.510;8.680;2023-02-01T11:18:58;3.13;;;1.88;;
55170;SDS011;41060;47.510;8.680;2023-02-01T11:21:26;3.38;;;1.63;;
55170;SDS011;41060;47.510;8.680;2023-02-01T11:23:53;3.40;;;1.67;;
55170;SDS011;41060;47.510;8.680;2023-02-01T11:26:22;1.80;;;1.05;;
55170;SDS011;41060;47.510;8.680;2023-02-01T11:28:52;2.70;;;1.20;;
55170;SDS011;41060;47.510;8.680;2023-02-01T11:31:23;2.25;;;1.25;;
55170;SDS011;41060;47.510;8.680;2023-02-01T11:33:52;3.80;;;1.52;;
55170;SDS011;41060;47.510;8.680;2023-02-01T11:36:23;2.35;;;1.13;;
55170;SDS011;41060;47.510;8.680;2023-02-01T11:38:54;1.90;;;1.35;;
55170;SDS011;41060;47.510;8.680;2023-02-01T11:41:35;1.58;;;1.48;;
55170;SDS011;41060;47.510;8.680;2023-02-01T11:44:15;2.63;;;1.33;;
55170;SDS011;41060;47.510;8.680;2023-02-01T11:46:47;1.83;;;0.90;;
55170;SDS011;41060;47.510;8.680;2023-02-01T11:49:18;5.07;;;1.25;;
55170;SDS011;41060;47.510;8.680;2023-02-01T11:51:49;1.20;;;1.10;;
55170;SDS011;41060;47.510;8.680;2023-02-01T11:54:33;3.53;;;1.77;;
55170;SDS011;41060;47.510;8.680;2023-02-01T11:57:13;2.50;;;1.15;;
55170;SDS011;41060;47.510;8.680;2023-02-01T11:59:57;2.65;;;0.65;;
55170;SDS011;41060;47.510;8.680;2023-02-01T12:02:38;3.00;;;1.48;;
55170;SDS011;41060;47.510;8.680;2023-02-01T12:05:19;4.35;;;1.60;;
55170;SDS011;41060;47.510;8.680;2023-02-01T12:07:57;2.47;;;1.20;;
55170;SDS011;41060;47.510;8.680;2023-02-01T12:10:42;1.58;;;1.17;;
55170;SDS011;41060;47.510;8.680;2023-02-01T12:13:23;5.60;;;1.63;;
55170;SDS011;41060;47.510;8.680;2023-02-01T12:16:07;2.75;;;1.17;;
55170;SDS011;41060;47.510;8.680;2023-02-01T12:18:47;1.45;;;1.17;;
55170;SDS011;41060;47.510;8.680;2023-02-01T12:21:49;0.95;;;0.70;;
55170;SDS011;41060;47.510;8.680;2023-02-01T12:24:39;3.38;;;1.05;;
55170;SDS011;41060;47.510;8.680;2023-02-01T12:27:32;0.95;;;0.70;;
55170;SDS011;41060;47.510;8.680;2023-02-01T12:30:31;4.70;;;1.08;;
55170;SDS011;41060;47.510;8.680;2023-02-01T12:33:18;2.50;;;0.55;;
55170;SDS011;41060;47.510;8.680;2023-02-01T12:35:58;3.38;;;1.05;;
55170;SDS011;41060;47.510;8.680;2023-02-01T12:38:36;0.98;;;0.77;;
55170;SDS011;41060;47.510;8.680;2023-02-01T12:41:19;1.75;;;1.25;;
55170;SDS011;41060;47.510;8.680;2023-02-01T12:44:12;6.78;;;1.38;;
55170;SDS011;41060;47.510;8.680;2023-02-01T12:46:49;2.47;;;1.63;;
55170;SDS011;41060;47.510;8.680;2023-02-01T12:49:21;1.05;;;0.77;;
55170;SDS011;41060;47.510;8.680;2023-02-01T12:51:55;1.30;;;0.85;;
55170;SDS011;41060;47.510;8.680;2023-02-01T12:54:28;1.92;;;1.75;;
55170;SDS011;41060;47.510;8.680;2023-02-01T12:57:01;1.38;;;1.02;;
55170;SDS011;41060;47.510;8.680;2023-02-01T12:59:32;2.28;;;1.05;;
55170;SDS011;41060;47.510;8.680;2023-02-01T13:02:06;1.02;;;0.88;;
55170;SDS011;41060;47.510;8.680;2023-02-01T13:04:44;3.97;;;2.28;;
55170;SDS011;41060;47.510;8.680;2023-02-01T13:07:24;2.40;;;0.90;;
55170;SDS011;41060;47.510;8.680;2023-02-01T13:09:56;2.65;;;1.15;;
55170;SDS011;41060;47.510;8.680;2023-02-01T13:12:30;0.57;;;0.55;;
55170;SDS011;41060;47.510;8.680;2023-02-01T13:15:04;2.08;;;0.85;;
55170;SDS011;41060;47.510;8.680;2023-02-01T13:17:40;1.17;;;0.40;;
55170;SDS011;41060;47.510;8.680;2023-02-01T13:20:15;2.00;;;0.80;;
55170;SDS011;41060;47.510;8.680;2023-02-01T13:22:46;3.00;;;1.23;;
55170;SDS011;41060;47.510;8.680;2023-02-01T13:25:17;2.17;;;1.10;;
55170;SDS011;41060;47.510;8.680;2023-02-01T13:27:52;0.65;;;0.52;;
55170;SDS011;41060;47.510;8.680;2023-02-01T13:30:21;1.00;;;0.75;;
55170;SDS011;41060;47.510;8.680;2023-02-01T13:33:00;1.15;;;0.70;;
55170;SDS011;41060;47.510;8.680;2023-02-01T13:35:47;4.53;;;1.33;;
55170;SDS011;41060;47.510;8.680;2023-02-01T13:38:30;1.35;;;1.00;;
55170;SDS011;41060;47.510;8.680;2023-02-01T13:41:20;1.23;;;0.82;;
55170;SDS011;41060;47.510;8.680;2023-02-01T13:43:54;0.93;;;0.80;;
55170;SDS011;41060;47.510;8.680;2023-02-01T13:46:24;0.63;;;0.50;;
55170;SDS011;41060;47.510;8.680;2023-02-01T13:48:54;2.45;;;1.23;;
55170;SDS011;41060;47.510;8.680;2023-02-01T13:54:21;1.08;;;0.98;;
55170;SDS011;41060;47.510;8.680;2023-02-01T13:56:51;1.13;;;1.00;;
55170;SDS011;41060;47.510;8.680;2023-02-01T14:08:36;2.67;;;0.85;;
55170;SDS011;41060;47.510;8.680;2023-02-01T14:14:07;0.52;;;0.45;;
55170;SDS011;41060;47.510;8.680;2023-02-01T14:23:16;1.70;;;0.80;;
55170;SDS011;41060;47.510;8.680;2023-02-01T14:25:46;2.05;;;1.05;;
55170;SDS011;41060;47.510;8.680;2023-02-01T14:28:25;0.65;;;0.50;;
55170;SDS011;41060;47.510;8.680;2023-02-01T14:30:54;0.88;;;0.57;;
55170;SDS011;41060;47.510;8.680;2023-02-01T14:33:24;0.80;;;0.70;;
55170;SDS011;41060;47.510;8.680;2023-02-01T14:36:00;4.78;;;1.27;;
55170;SDS011;41060;47.510;8.680;2023-02-01T14:38:33;3.83;;;0.85;;
55170;SDS011;41060;47.510;8.680;2023-02-01T14:41:17;1.08;;;0.60;;
55170;SDS011;41060;47.510;8.680;2023-02-01T14:47:26;1.67;;;0.80;;
55170;SDS011;41060;47.510;8.680;2023-02-01T14:52:50;2.30;;;1.05;;
55170;SDS011;41060;47.510;8.680;2023-02-01T14:55:33;8.30;;;0.63;;
55170;SDS011;41060;47.510;8.680;2023-02-01T14:58:05;6.13;;;1.58;;
55170;SDS011;41060;47.510;8.680;2023-02-01T15:00:36;5.72;;;0.88;;
55170;SDS011;41060;47.510;8.680;2023-02-01T15:03:15;1.40;;;1.05;;
55170;SDS011;41060;47.510;8.680;2023-02-01T15:05:54;1.38;;;0.65;;
55170;SDS011;41060;47.510;8.680;2023-02-01T15:08:23;0.52;;;0.47;;
55170;SDS011;41060;47.510;8.680;2023-02-01T15:10:58;2.08;;;0.70;;
55170;SDS011;41060;47.510;8.680;2023-02-01T15:13:29;6.05;;;0.77;;
55170;SDS011;41060;47.510;8.680;2023-02-01T15:16:02;0.57;;;0.50;;
55170;SDS011;41060;47.510;8.680;2023-02-01T15:18:39;5.45;;;1.52;;
55170;SDS011;41060;47.510;8.680;2023-02-01T15:21:06;0.63;;;0.55;;
55170;SDS011;41060;47.510;8.680;2023-02-01T15:23:41;1.73;;;1.00;;
55170;SDS011;41060;47.510;8.680;2023-02-01T15:26:09;5.75;;;0.93;;
55170;SDS011;41060;47.510;8.680;2023-02-01T15:28:35;4.47;;;1.38;;
55170;SDS011;41060;47.510;8.680;2023-02-01T15:31:05;1.42;;;0.65;;
55170;SDS011;41060;47.510;8.680;2023-02-01T15:33:32;4.75;;;0.85;;
55170;SDS011;41060;47.510;8.680;2023-02-01T15:36:07;2.13;;;0.82;;
55170;SDS011;41060;47.510;8.680;2023-02-01T15:38:40;1.88;;;0.90;;
55170;SDS011;41060;47.510;8.680;2023-02-01T15:41:10;10.60;;;2.05;;
55170;SDS011;41060;47.510;8.680;2023-02-01T15:43:41;4.00;;;0.80;;
55170;SDS011;41060;47.510;8.680;2023-02-01T15:46:11;0.50;;;0.50;;
55170;SDS011;41060;47.510;8.680;2023-02-01T15:48:42;0.50;;;0.45;;